createdAt,value
2017-09-30T00:01:29.380Z,75.60
2017-09-30T00:03:56.844Z,75.66
2017-09-30T00:06:24.360Z,75.84
2017-09-30T00:08:51.828Z,75.57
2017-09-30T00:11:19.534Z,75.65
2017-09-30T00:13:47.010Z,76.00
2017-09-30T00:16:14.470Z,76.18
2017-09-30T00:18:41.976Z,76.29
2017-09-30T00:21:09.433Z,76.19
2017-09-30T00:23:36.910Z,76.06
2017-09-30T00:26:04.378Z,76.08
2017-09-30T00:28:31.869Z,75.86
2017-09-30T00:30:59.344Z,75.79
2017-09-30T00:33:26.849Z,76.03
2017-09-30T00:35:54.330Z,76.17
2017-09-30T00:38:21.797Z,76.31
2017-09-30T00:40:49.308Z,76.38
2017-09-30T00:43:16.796Z,76.26
2017-09-30T00:45:44.335Z,76.19
2017-09-30T00:48:11.846Z,75.97
2017-09-30T00:50:39.377Z,75.94
2017-09-30T00:53:06.866Z,75.81
2017-09-30T00:55:34.375Z,75.97
2017-09-30T00:58:01.837Z,76.01
2017-09-30T01:00:29.294Z,76.17
2017-09-30T01:02:56.777Z,76.05
2017-09-30T01:05:24.258Z,75.90
2017-09-30T01:07:51.745Z,75.93
2017-09-30T01:10:19.224Z,76.13
2017-09-30T01:12:46.709Z,76.15
2017-09-30T01:15:14.208Z,76.04
2017-09-30T01:17:41.674Z,76.26
2017-09-30T01:20:09.208Z,76.49
2017-09-30T01:22:36.683Z,76.83
2017-09-30T01:25:04.175Z,76.81
2017-09-30T01:27:31.641Z,76.72
2017-09-30T01:29:59.131Z,76.74
2017-09-30T01:32:26.584Z,76.87
2017-09-30T01:34:54.077Z,76.73
2017-09-30T01:37:21.555Z,76.54
2017-09-30T01:39:49.041Z,77.03
2017-09-30T01:42:16.549Z,77.03
2017-09-30T01:44:44.054Z,77.17
2017-09-30T01:47:11.571Z,77.39
2017-09-30T01:49:39.021Z,77.46
2017-09-30T01:52:06.518Z,77.40
2017-09-30T01:54:33.993Z,77.43
2017-09-30T01:57:01.497Z,77.59
2017-09-30T01:59:28.954Z,77.62
2017-09-30T02:01:56.484Z,77.69
2017-09-30T02:04:23.986Z,77.49
2017-09-30T02:06:51.478Z,77.24
2017-09-30T02:09:18.958Z,77.31
2017-09-30T02:11:46.479Z,77.44
2017-09-30T02:14:13.972Z,77.31
2017-09-30T02:16:41.478Z,77.20
2017-09-30T02:19:08.979Z,76.97
2017-09-30T02:21:36.461Z,77.08
2017-09-30T02:24:03.939Z,77.05
2017-09-30T02:26:31.423Z,77.16
2017-09-30T02:28:58.956Z,77.39
2017-09-30T02:31:26.442Z,77.36
2017-09-30T02:33:53.931Z,77.31
2017-09-30T02:36:21.390Z,77.24
2017-09-30T02:38:48.892Z,77.26
2017-09-30T02:41:16.447Z,77.01
2017-09-30T02:43:43.998Z,77.05
2017-09-30T02:46:11.492Z,76.98
2017-09-30T02:48:38.950Z,76.83
2017-09-30T02:51:06.438Z,76.95
2017-09-30T02:53:33.894Z,76.89
2017-09-30T02:56:01.393Z,76.98
2017-09-30T02:58:28.877Z,77.00
2017-09-30T03:00:56.353Z,77.01
2017-09-30T03:03:23.882Z,76.95
2017-09-30T03:05:51.341Z,77.05
2017-09-30T03:08:18.820Z,76.97
2017-09-30T03:10:46.399Z,76.85
2017-09-30T03:13:14.249Z,76.78
2017-09-30T03:15:41.717Z,76.98
2017-09-30T03:18:09.221Z,77.17
2017-09-30T03:20:36.685Z,77.15
2017-09-30T03:23:04.263Z,77.09
2017-09-30T03:25:31.727Z,77.67
2017-09-30T03:27:59.220Z,77.63
2017-09-30T03:30:26.721Z,77.61
2017-09-30T03:32:54.181Z,77.75
2017-09-30T03:35:21.669Z,78.32
2017-09-30T03:37:49.162Z,78.67
2017-09-30T03:40:16.647Z,78.33
2017-09-30T03:42:44.102Z,78.05
2017-09-30T03:45:11.600Z,77.78
2017-09-30T03:47:39.077Z,77.79
2017-09-30T03:50:06.555Z,77.58
2017-09-30T03:52:34.044Z,77.82
2017-09-30T03:55:01.502Z,77.92
2017-09-30T03:57:28.985Z,78.11
2017-09-30T03:59:56.464Z,78.09
2017-09-30T04:02:23.964Z,77.81
2017-09-30T04:04:51.425Z,77.79
2017-09-30T04:07:18.920Z,77.83
2017-09-30T04:09:46.371Z,77.86
2017-09-30T04:12:13.903Z,77.75
2017-09-30T04:14:41.369Z,77.71
2017-09-30T04:17:08.853Z,77.59
2017-09-30T04:19:36.318Z,77.28
2017-09-30T04:22:03.838Z,76.98
2017-09-30T04:24:31.294Z,77.08
2017-09-30T04:26:58.775Z,76.95
2017-09-30T04:29:26.288Z,76.78
2017-09-30T04:31:53.749Z,77.11
2017-09-30T04:34:21.235Z,77.49
2017-09-30T04:36:48.710Z,77.78
2017-09-30T04:39:16.217Z,78.01
2017-09-30T04:41:43.709Z,77.98
2017-09-30T04:44:11.218Z,78.07
2017-09-30T04:46:38.695Z,78.06
2017-09-30T04:49:06.197Z,78.08
2017-09-30T04:51:33.693Z,78.10
2017-09-30T04:54:01.151Z,78.30
2017-09-30T04:56:28.667Z,78.63
2017-09-30T04:58:56.181Z,78.72
2017-09-30T05:01:23.680Z,78.68
2017-09-30T05:03:51.173Z,78.60
2017-09-30T05:06:18.686Z,78.52
2017-09-30T05:08:46.260Z,78.43
2017-09-30T05:11:13.762Z,78.45
2017-09-30T05:13:41.263Z,78.33
2017-09-30T05:16:08.738Z,78.27
2017-09-30T05:18:36.236Z,78.21
2017-09-30T05:21:03.712Z,77.92
2017-09-30T05:23:31.309Z,77.98
2017-09-30T05:25:58.805Z,78.64
2017-09-30T05:28:26.265Z,78.36
2017-09-30T05:30:53.780Z,78.51
2017-09-30T05:33:21.265Z,78.51
2017-09-30T05:35:48.749Z,78.76
2017-09-30T05:38:16.221Z,78.76
2017-09-30T05:40:43.722Z,78.70
2017-09-30T05:43:11.222Z,78.76
2017-09-30T05:45:38.676Z,78.78
2017-09-30T05:48:06.156Z,78.55
2017-09-30T05:50:33.665Z,78.42
2017-09-30T05:53:01.148Z,78.22
2017-09-30T05:55:28.605Z,78.31
2017-09-30T05:57:56.109Z,78.22
2017-09-30T06:00:23.578Z,78.11
2017-09-30T06:02:51.092Z,78.29
2017-09-30T06:05:18.597Z,78.31
2017-09-30T06:07:46.097Z,78.26
2017-09-30T06:10:13.576Z,78.27
2017-09-30T06:12:41.060Z,78.07
2017-09-30T06:15:08.578Z,77.81
2017-09-30T06:17:36.032Z,78.21
2017-09-30T06:20:03.548Z,78.35
2017-09-30T06:22:31.018Z,78.13
2017-09-30T06:24:58.505Z,77.99
2017-09-30T06:27:25.994Z,77.96
2017-09-30T06:29:53.508Z,77.88
2017-09-30T06:32:20.989Z,77.83
2017-09-30T06:34:48.696Z,77.88
2017-09-30T06:37:16.186Z,77.87
2017-09-30T06:39:43.661Z,77.58
2017-09-30T06:42:11.171Z,77.94
2017-09-30T06:44:38.626Z,78.74
2017-09-30T06:47:06.112Z,79.06
2017-09-30T06:49:33.608Z,79.10
2017-09-30T06:52:01.098Z,78.75
2017-09-30T06:54:28.620Z,78.42
2017-09-30T06:56:56.108Z,77.96
2017-09-30T06:59:23.600Z,77.56
2017-09-30T07:01:51.101Z,77.24
2017-09-30T07:04:18.573Z,77.01
2017-09-30T07:06:46.097Z,76.75
2017-09-30T07:09:13.645Z,76.36
2017-09-30T07:11:41.110Z,76.25
2017-09-30T07:14:08.698Z,76.79
2017-09-30T07:16:36.228Z,76.89
2017-09-30T07:19:03.753Z,76.89
2017-09-30T07:21:31.321Z,76.71
2017-09-30T07:23:58.989Z,76.55
2017-09-30T07:26:26.491Z,76.50
2017-09-30T07:28:53.997Z,76.21
2017-09-30T07:31:22.129Z,75.62
2017-09-30T07:33:49.622Z,75.25
2017-09-30T07:36:17.169Z,75.17
2017-09-30T07:38:44.669Z,75.07
2017-09-30T07:41:12.183Z,74.97
2017-09-30T07:43:39.649Z,74.56
2017-09-30T07:46:07.217Z,74.41
2017-09-30T07:48:34.755Z,74.37
2017-09-30T07:51:02.336Z,74.54
2017-09-30T07:53:29.879Z,74.41
2017-09-30T07:55:57.367Z,74.40
2017-09-30T07:58:24.854Z,74.25
2017-09-30T08:00:52.390Z,74.26
2017-09-30T08:03:19.870Z,73.99
2017-09-30T08:05:47.401Z,73.62
2017-09-30T08:08:14.936Z,73.47
2017-09-30T08:10:42.419Z,73.07
2017-09-30T08:13:09.925Z,72.36
2017-09-30T08:15:37.453Z,72.58
2017-09-30T08:18:05.001Z,72.39
2017-09-30T08:20:32.633Z,71.88
2017-09-30T08:23:00.089Z,71.83
2017-09-30T08:25:27.600Z,71.85
2017-09-30T08:27:55.140Z,71.59
2017-09-30T08:30:22.642Z,71.02
2017-09-30T08:32:53.167Z,70.36
2017-09-30T08:35:20.640Z,69.76
2017-09-30T08:37:48.129Z,69.20
2017-09-30T08:40:15.633Z,68.92
2017-09-30T08:42:43.129Z,68.45
2017-09-30T08:45:10.645Z,68.14
2017-09-30T08:47:38.159Z,66.85
2017-09-30T08:50:05.681Z,66.56
2017-09-30T08:52:33.493Z,65.09
2017-09-30T08:55:00.982Z,65.09
2017-09-30T08:57:28.495Z,64.18
2017-09-30T08:59:56.017Z,63.59
2017-09-30T09:02:23.508Z,63.32
2017-09-30T09:04:51.001Z,63.58
2017-09-30T09:07:18.465Z,63.82
2017-09-30T09:09:45.984Z,63.70
2017-09-30T09:12:13.560Z,63.44
2017-09-30T09:14:41.025Z,63.19
2017-09-30T09:17:08.821Z,62.69
2017-09-30T09:19:36.316Z,63.06
2017-09-30T09:22:04.293Z,63.13
2017-09-30T09:24:32.523Z,63.01
2017-09-30T09:27:00.011Z,62.85
2017-09-30T09:29:27.506Z,63.30
2017-09-30T09:31:54.989Z,63.31
2017-09-30T09:34:22.608Z,62.42
2017-09-30T09:36:50.096Z,62.50
2017-09-30T09:39:17.610Z,62.52
2017-09-30T09:41:45.900Z,62.39
2017-09-30T09:44:13.408Z,62.01
2017-09-30T09:46:40.881Z,61.69
2017-09-30T09:49:08.371Z,61.62
2017-09-30T09:51:35.897Z,61.85
2017-09-30T09:54:03.431Z,61.66
2017-09-30T09:56:30.893Z,61.14
2017-09-30T09:58:58.429Z,61.31
2017-09-30T10:01:26.029Z,60.95
2017-09-30T10:03:53.551Z,61.12
2017-09-30T10:06:21.173Z,61.12
2017-09-30T10:08:48.655Z,60.66
2017-09-30T10:11:16.162Z,61.08
2017-09-30T10:13:43.684Z,61.25
2017-09-30T10:16:11.173Z,61.55
2017-09-30T10:18:38.680Z,62.00
2017-09-30T10:21:06.181Z,62.29
2017-09-30T10:23:33.655Z,62.70
2017-09-30T10:26:01.178Z,62.81
2017-09-30T10:28:28.734Z,63.04
2017-09-30T10:30:57.074Z,62.48
2017-09-30T10:33:24.576Z,62.50
2017-09-30T10:35:52.046Z,62.14
2017-09-30T10:38:19.558Z,61.22
2017-09-30T10:40:47.079Z,61.07
2017-09-30T10:43:14.570Z,61.50
2017-09-30T10:45:42.084Z,61.59
2017-09-30T10:48:09.615Z,61.55
2017-09-30T10:50:37.248Z,61.89
2017-09-30T10:53:04.720Z,61.58
2017-09-30T10:55:32.208Z,61.19
2017-09-30T10:57:59.690Z,60.44
2017-09-30T11:00:27.158Z,60.03
2017-09-30T11:02:54.658Z,60.29
2017-09-30T11:05:22.124Z,60.81
2017-09-30T11:07:49.618Z,61.25
2017-09-30T11:10:17.092Z,61.55
2017-09-30T11:12:44.580Z,61.56
2017-09-30T11:15:12.105Z,61.54
2017-09-30T11:17:39.592Z,61.67
2017-09-30T11:20:07.075Z,61.85
2017-09-30T11:22:34.561Z,62.28
2017-09-30T11:25:02.054Z,62.69
2017-09-30T11:27:29.560Z,63.21
2017-09-30T11:29:57.081Z,63.31
2017-09-30T11:32:24.604Z,63.46
2017-09-30T11:34:52.109Z,63.71
2017-09-30T11:37:19.647Z,64.45
2017-09-30T11:39:47.145Z,64.51
2017-09-30T11:42:14.640Z,64.09
2017-09-30T11:44:42.135Z,64.58
2017-09-30T11:47:09.657Z,64.42
2017-09-30T11:49:37.172Z,64.45
2017-09-30T11:52:05.357Z,64.37
2017-09-30T11:54:32.819Z,64.23
2017-09-30T11:57:00.353Z,64.79
2017-09-30T11:59:27.819Z,65.15
2017-09-30T12:01:55.460Z,65.24
2017-09-30T12:04:22.990Z,65.27
2017-09-30T12:06:50.495Z,64.87
2017-09-30T12:09:18.011Z,64.88
2017-09-30T12:11:46.124Z,64.82
2017-09-30T12:14:13.638Z,64.91
2017-09-30T12:16:41.169Z,64.64
2017-09-30T12:19:08.674Z,64.57
2017-09-30T12:21:36.181Z,64.68
2017-09-30T12:24:03.701Z,64.90
2017-09-30T12:26:31.160Z,65.18
2017-09-30T12:28:59.581Z,65.11
2017-09-30T12:31:27.033Z,64.97
2017-09-30T12:33:54.622Z,65.63
2017-09-30T12:36:22.074Z,65.79
2017-09-30T12:38:49.552Z,65.51
2017-09-30T12:41:17.059Z,66.92
2017-09-30T12:43:44.532Z,66.69
2017-09-30T12:46:12.049Z,66.62
2017-09-30T12:48:39.700Z,66.47
2017-09-30T12:51:07.194Z,65.93
2017-09-30T12:53:34.653Z,65.63
2017-09-30T12:56:02.187Z,65.64
2017-09-30T12:58:29.697Z,66.00
2017-09-30T13:00:57.188Z,67.06
2017-09-30T13:03:24.633Z,67.59
2017-09-30T13:05:52.344Z,69.06
2017-09-30T13:08:19.857Z,70.43
2017-09-30T13:10:47.344Z,69.99
2017-09-30T13:13:14.832Z,72.13
2017-09-30T13:15:42.288Z,72.29
2017-09-30T13:18:09.776Z,71.30
2017-09-30T13:20:37.252Z,71.51
2017-09-30T13:23:04.743Z,70.56
2017-09-30T13:25:32.226Z,70.93
2017-09-30T13:27:59.715Z,71.46
2017-09-30T13:30:27.588Z,72.45
2017-09-30T13:32:55.115Z,71.64
2017-09-30T13:35:22.595Z,72.19
2017-09-30T13:37:50.108Z,71.99
2017-09-30T13:40:17.621Z,72.45
2017-09-30T13:42:45.216Z,72.59
2017-09-30T13:45:12.718Z,72.87
2017-09-30T13:47:40.223Z,74.15
2017-09-30T13:50:07.713Z,73.58
2017-09-30T13:52:35.222Z,74.70
2017-09-30T13:55:02.718Z,74.60
2017-09-30T13:57:30.195Z,74.48
2017-09-30T13:59:58.440Z,74.79
2017-09-30T14:02:25.913Z,75.81
2017-09-30T14:04:53.429Z,75.43
2017-09-30T14:07:20.915Z,75.87
2017-09-30T14:09:48.400Z,75.26
2017-09-30T14:12:15.933Z,75.16
2017-09-30T14:14:43.481Z,75.98
2017-09-30T14:17:10.985Z,75.65
2017-09-30T14:19:38.453Z,74.24
2017-09-30T14:22:05.950Z,74.27
2017-09-30T14:24:33.510Z,75.22
2017-09-30T14:27:01.043Z,75.13
2017-09-30T14:29:28.547Z,74.48
2017-09-30T14:31:56.095Z,74.97
2017-09-30T14:34:23.595Z,75.49
2017-09-30T14:36:51.235Z,75.64
2017-09-30T14:39:18.745Z,75.49
2017-09-30T14:41:46.954Z,75.85
2017-09-30T14:44:14.619Z,76.15
2017-09-30T14:46:42.200Z,77.29
2017-09-30T14:49:09.727Z,77.94
2017-09-30T14:51:37.192Z,75.74
2017-09-30T14:54:04.731Z,75.56
2017-09-30T14:56:32.236Z,77.65
2017-09-30T14:58:59.801Z,77.65
2017-09-30T15:01:27.290Z,77.38
2017-09-30T15:03:55.853Z,77.59
2017-09-30T15:06:23.387Z,77.12
2017-09-30T15:08:51.456Z,77.04
2017-09-30T15:11:18.984Z,77.74
2017-09-30T15:13:46.942Z,77.15
2017-09-30T15:16:14.519Z,76.61
2017-09-30T15:18:41.992Z,77.22
2017-09-30T15:21:09.503Z,76.98
2017-09-30T15:23:36.978Z,76.99
2017-09-30T15:26:04.496Z,76.81
2017-09-30T15:28:32.019Z,77.42
2017-09-30T15:30:59.496Z,77.65
2017-09-30T15:33:27.055Z,77.41
2017-09-30T15:35:54.569Z,77.27
2017-09-30T15:38:22.091Z,77.55
2017-09-30T15:40:49.590Z,77.40
2017-09-30T15:43:17.089Z,76.86
2017-09-30T15:45:44.595Z,77.44
2017-09-30T15:48:12.115Z,77.84
2017-09-30T15:50:39.620Z,78.64
2017-09-30T15:53:07.131Z,77.82
2017-09-30T15:55:34.667Z,77.46
2017-09-30T15:58:02.182Z,77.58
2017-09-30T16:00:29.672Z,78.44
2017-09-30T16:02:57.174Z,77.99
2017-09-30T16:05:25.670Z,78.09
2017-09-30T16:07:53.189Z,78.96
2017-09-30T16:10:20.702Z,78.00
2017-09-30T16:12:48.209Z,77.77
2017-09-30T16:15:15.728Z,78.17
2017-09-30T16:17:43.287Z,79.21
2017-09-30T16:20:10.833Z,79.41
2017-09-30T16:22:39.114Z,79.24
2017-09-30T16:25:06.637Z,79.29
2017-09-30T16:27:34.188Z,79.40
2017-09-30T16:30:01.688Z,79.79
2017-09-30T16:32:29.226Z,79.39
2017-09-30T16:34:56.729Z,79.43
2017-09-30T16:37:24.256Z,79.53
2017-09-30T16:39:51.750Z,79.77
2017-09-30T16:42:19.281Z,80.01
2017-09-30T16:44:46.871Z,80.38
2017-09-30T16:47:14.420Z,80.35
2017-09-30T16:49:41.937Z,80.16
2017-09-30T16:52:09.446Z,80.04
2017-09-30T16:54:37.002Z,79.93
2017-09-30T16:57:04.538Z,80.46
2017-09-30T16:59:32.068Z,80.17
2017-09-30T17:02:07.269Z,80.58
2017-09-30T17:04:35.013Z,80.58
2017-09-30T17:07:02.521Z,80.24
2017-09-30T17:09:30.049Z,80.30
2017-09-30T17:11:57.557Z,80.56
2017-09-30T17:14:25.156Z,80.20
2017-09-30T17:16:53.985Z,80.13
2017-09-30T17:19:21.802Z,80.27
2017-09-30T17:21:49.328Z,80.32
2017-09-30T17:24:16.816Z,80.34
2017-09-30T17:26:44.368Z,79.92
2017-09-30T17:29:12.834Z,80.01
2017-09-30T17:31:41.182Z,80.08
2017-09-30T17:34:08.691Z,80.03
2017-09-30T17:36:36.216Z,79.78
2017-09-30T17:39:03.700Z,79.54
2017-09-30T17:41:31.466Z,79.43
2017-09-30T17:43:58.967Z,79.42
2017-09-30T17:46:26.492Z,79.59
2017-09-30T17:48:53.999Z,79.65
2017-09-30T17:51:21.510Z,79.70
2017-09-30T17:53:49.038Z,79.49
2017-09-30T17:56:16.565Z,78.97
2017-09-30T17:58:44.090Z,78.90
2017-09-30T18:01:12.574Z,79.36
2017-09-30T18:03:40.075Z,79.55
2017-09-30T18:06:07.583Z,79.43
2017-09-30T18:08:36.382Z,79.53
2017-09-30T18:11:03.891Z,79.32
2017-09-30T18:13:32.273Z,79.27
2017-09-30T18:16:01.094Z,79.45
2017-09-30T18:18:29.487Z,79.50
2017-09-30T18:20:57.032Z,79.75
2017-09-30T18:23:24.562Z,79.84
2017-09-30T18:25:52.026Z,79.91
2017-09-30T18:28:19.762Z,79.86
2017-09-30T18:30:47.286Z,80.70
2017-09-30T18:33:14.789Z,80.33
2017-09-30T18:35:42.326Z,80.34
2017-09-30T18:38:09.846Z,80.59
2017-09-30T18:40:37.369Z,80.69
2017-09-30T18:43:04.882Z,80.63
2017-09-30T18:45:32.418Z,81.24
2017-09-30T18:47:59.945Z,81.38
2017-09-30T18:50:27.472Z,81.45
2017-09-30T18:52:56.023Z,81.36
2017-09-30T18:55:23.569Z,81.57
2017-09-30T18:57:51.082Z,81.34
2017-09-30T19:00:18.650Z,81.73
2017-09-30T19:02:47.534Z,81.63
2017-09-30T19:05:15.645Z,81.99
2017-09-30T19:07:43.217Z,82.33
2017-09-30T19:10:11.054Z,82.28
2017-09-30T19:12:38.572Z,82.25
2017-09-30T19:15:06.102Z,82.28
2017-09-30T19:17:33.661Z,82.66
2017-09-30T19:20:02.660Z,82.00
2017-09-30T19:22:30.943Z,81.74
2017-09-30T19:24:58.490Z,82.00
2017-09-30T19:27:26.044Z,81.95
2017-09-30T19:29:53.932Z,83.05
2017-09-30T19:32:22.392Z,81.10
2017-09-30T19:34:50.844Z,80.27
2017-09-30T19:37:18.391Z,80.28
2017-09-30T19:39:45.961Z,80.45
2017-09-30T19:42:13.506Z,80.43
2017-09-30T19:44:41.060Z,79.72
2017-09-30T19:47:08.602Z,79.58
2017-09-30T19:49:36.200Z,79.68
2017-09-30T19:52:04.663Z,80.08
2017-09-30T19:54:32.205Z,80.27
2017-09-30T19:56:59.763Z,79.67
2017-09-30T19:59:27.272Z,79.60
2017-09-30T20:01:55.681Z,80.67
2017-09-30T20:04:24.539Z,81.30
2017-09-30T20:06:52.814Z,81.18
2017-09-30T20:09:21.062Z,81.13
2017-09-30T20:11:48.632Z,81.03
2017-09-30T20:14:16.158Z,80.79
2017-09-30T20:16:43.693Z,80.52
2017-09-30T20:19:12.157Z,80.13
2017-09-30T20:21:40.620Z,80.33
2017-09-30T20:24:08.548Z,80.71
2017-09-30T20:26:36.835Z,80.29
2017-09-30T20:29:04.940Z,80.41
2017-09-30T20:31:32.490Z,80.39
2017-09-30T20:34:00.061Z,80.46
2017-09-30T20:36:27.985Z,80.42
2017-09-30T20:38:55.506Z,80.36
2017-09-30T20:41:23.269Z,79.43
2017-09-30T20:43:51.679Z,79.90
2017-09-30T20:46:19.405Z,80.09
2017-09-30T20:48:46.973Z,80.02
2017-09-30T20:51:14.463Z,79.52
2017-09-30T20:53:41.985Z,79.09
2017-09-30T20:56:09.486Z,78.69
2017-09-30T20:58:37.083Z,78.59
2017-09-30T21:01:04.591Z,78.47
2017-09-30T21:03:32.108Z,78.26
2017-09-30T21:05:59.676Z,78.01
2017-09-30T21:08:27.180Z,77.50
2017-09-30T21:10:54.719Z,77.55
2017-09-30T21:13:22.258Z,78.06
2017-09-30T21:15:49.791Z,77.80
2017-09-30T21:18:17.312Z,77.43
2017-09-30T21:20:44.976Z,77.08
2017-09-30T21:23:12.513Z,77.10
2017-09-30T21:25:40.710Z,77.22
2017-09-30T21:28:08.224Z,77.79
2017-09-30T21:30:35.753Z,77.56
2017-09-30T21:33:03.264Z,77.53
2017-09-30T21:35:30.744Z,77.22
2017-09-30T21:37:58.262Z,77.47
2017-09-30T21:40:25.762Z,78.09
2017-09-30T21:42:53.316Z,78.32
2017-09-30T21:45:20.808Z,77.57
2017-09-30T21:47:48.295Z,78.00
2017-09-30T21:50:15.809Z,77.54
2017-09-30T21:52:43.306Z,76.62
2017-09-30T21:55:10.858Z,76.45
2017-09-30T21:57:38.765Z,75.88
2017-09-30T22:00:06.287Z,75.85
2017-09-30T22:02:33.785Z,75.91
2017-09-30T22:05:01.954Z,76.04
2017-09-30T22:07:30.091Z,75.79
2017-09-30T22:09:57.604Z,75.89
2017-09-30T22:12:25.130Z,76.04
2017-09-30T22:14:52.588Z,76.10
2017-09-30T22:17:20.098Z,75.79
2017-09-30T22:19:47.634Z,76.29
2017-09-30T22:22:15.136Z,76.33
2017-09-30T22:24:42.616Z,76.36
2017-09-30T22:27:10.129Z,76.68
2017-09-30T22:29:37.603Z,77.01
2017-09-30T22:32:05.146Z,77.53
2017-09-30T22:34:32.652Z,77.86
2017-09-30T22:37:00.197Z,78.08
2017-09-30T22:39:27.698Z,78.17
2017-09-30T22:41:55.184Z,78.40
2017-09-30T22:44:22.712Z,77.84
2017-09-30T22:46:50.217Z,77.29
2017-09-30T22:49:17.753Z,77.14
2017-09-30T22:51:45.232Z,77.43
2017-09-30T22:54:12.745Z,77.65
2017-09-30T22:56:40.226Z,77.45
2017-09-30T22:59:07.752Z,77.70
2017-09-30T23:01:35.302Z,77.96
2017-09-30T23:04:02.771Z,78.11
2017-09-30T23:06:30.977Z,78.01
2017-09-30T23:08:58.492Z,78.17
2017-09-30T23:11:25.978Z,78.00
2017-09-30T23:13:53.433Z,77.85
2017-09-30T23:16:21.218Z,77.85
2017-09-30T23:18:48.698Z,77.69
2017-09-30T23:21:16.182Z,77.37
2017-09-30T23:23:43.673Z,77.70
2017-09-30T23:26:11.145Z,78.60
2017-09-30T23:28:38.627Z,78.78
2017-09-30T23:31:06.102Z,78.92
2017-09-30T23:33:33.726Z,79.21
2017-09-30T23:36:01.225Z,79.45
2017-09-30T23:38:28.689Z,79.39
2017-09-30T23:40:56.385Z,79.44
2017-09-30T23:43:23.842Z,79.45
2017-09-30T23:45:51.324Z,79.28
2017-09-30T23:48:18.789Z,78.89
2017-09-30T23:50:46.286Z,78.59
2017-09-30T23:53:13.784Z,78.50
2017-09-30T23:55:41.272Z,78.38
2017-09-30T23:58:08.745Z,78.48
